createdAt,value
2023-04-25T04:02:33.875Z,2
2023-04-25T04:15:19.852Z,4.2
2023-04-25T04:30:20.427Z,4.3
2023-04-25T04:45:19.609Z,13.2
2023-04-25T05:00:19.692Z,24.3
2023-04-25T05:15:19.933Z,13.5
2023-04-25T05:30:19.800Z,32.2
2023-04-25T05:45:20.054Z,45.1
2023-04-25T06:00:19.393Z,47.7
2023-04-25T06:30:20.000Z,40.6
2023-04-25T06:45:19.601Z,85
2023-04-25T07:00:20.136Z,116.5
2023-04-25T07:15:19.812Z,117.8
2023-04-25T07:30:20.515Z,133.2
2023-04-25T07:45:19.541Z,147.7
2023-04-25T08:00:19.603Z,158.5
2023-04-25T08:15:20.105Z,112.6
2023-04-25T08:30:20.372Z,237.4
2023-04-25T08:45:19.248Z,227.4
2023-04-25T09:00:20.242Z,253
2023-04-25T09:15:20.904Z,186.3
2023-04-25T09:30:19.769Z,299.8
2023-04-25T09:45:28.524Z,227.2
2023-04-25T10:00:20.335Z,291.8
2023-04-25T10:15:19.979Z,155
2023-04-25T10:30:20.451Z,227.3
2023-04-25T10:45:20.341Z,194.9
2023-04-25T11:00:20.776Z,283.5
2023-04-25T11:15:19.972Z,281.8
2023-04-25T11:30:19.987Z,79.3
2023-04-25T11:45:19.931Z,266.4
2023-04-25T12:00:20.508Z,193.3
2023-04-25T12:15:20.569Z,173.6
2023-04-25T12:30:19.936Z,144.6
2023-04-25T12:45:20.105Z,267.5
2023-04-25T13:00:19.730Z,483.8
2023-04-25T13:15:19.561Z,407.2
2023-04-25T13:30:20.169Z,396.9
2023-04-25T13:45:20.409Z,299.4
2023-04-25T14:00:21.161Z,625.9
2023-04-25T14:15:19.779Z,1075.9
2023-04-25T14:30:20.204Z,592.2
2023-04-25T14:45:19.892Z,188.5
2023-04-25T15:00:19.837Z,248.9
2023-04-25T15:15:26.461Z,629.3
2023-04-25T15:30:19.889Z,1047.1
2023-04-25T15:45:19.602Z,411.5
2023-04-25T16:00:19.426Z,676.9
2023-04-25T16:15:20.431Z,120.7
2023-04-25T16:30:20.009Z,22.3
2023-04-25T16:45:19.337Z,199.4
2023-04-25T17:00:21.118Z,482.7
2023-04-25T17:15:19.674Z,46.3
2023-04-25T17:30:20.321Z,102.4
2023-04-25T17:45:19.636Z,405.1
2023-04-25T18:00:20.353Z,68.8
2023-04-25T18:15:19.904Z,50.2
2023-04-25T18:30:19.800Z,17
2023-04-25T18:45:19.215Z,5.2
2023-04-25T19:00:20.195Z,1.1
2023-04-25T19:15:20.431Z,1.1
2023-04-25T19:30:19.691Z,1.1
2023-04-25T19:45:20.571Z,1.1
2023-04-25T20:00:20.055Z,3.9
2023-04-25T20:15:20.526Z,3.9
2023-04-25T20:30:19.633Z,3.9
2023-04-25T20:45:20.176Z,3.9
